Time;durP1;ratioP1;P1;durP2;ratioP2;P2;SDS_P1;SDS_P2;PMS_P1;PMS_P2;Temp;Humidity;BMP_temperature;BMP_pressure;BME280_temperature;BME280_humidity;BME280_pressure;Samples;Min_cycle;Max_cycle;Signal;HPM_P1;HPM_P2
2022/08/18 00:02:14;;;;;;;25.27;18.08;;;;;;;;;;5010127;28;20045;-63
2022/08/18 00:04:41;;;;;;;29.45;17.40;;;;;;;;;;4990883;28;20077;-62
2022/08/18 00:07:12;;;;;;;29.60;18.33;;;;;;;;;;5007054;28;20605;-62
2022/08/18 00:09:38;;;;;;;27.65;17.05;;;;;;;;;;5009787;28;20088;-62
2022/08/18 00:12:12;;;;;;;29.58;17.70;;;;;;;;;;4992589;28;20052;-63
2022/08/18 00:14:38;;;;;;;27.40;17.17;;;;;;;;;;5007762;28;20103;-62
2022/08/18 00:17:05;;;;;;;25.70;18.02;;;;;;;;;;5009877;28;20598;-62
2022/08/18 00:19:31;;;;;;;27.45;17.92;;;;;;;;;;5011762;28;20116;-62
2022/08/18 00:21:57;;;;;;;29.30;17.70;;;;;;;;;;5011196;28;20065;-62
2022/08/18 00:24:24;;;;;;;26.27;16.60;;;;;;;;;;5006076;28;20042;-62
2022/08/18 00:26:51;;;;;;;26.60;17.83;;;;;;;;;;5010729;28;20034;-62
2022/08/18 00:29:17;;;;;;;25.92;16.90;;;;;;;;;;4990739;28;20044;-62
2022/08/18 00:31:43;;;;;;;24.27;16.80;;;;;;;;;;5012668;28;20037;-62
2022/08/18 00:34:09;;;;;;;31.48;17.80;;;;;;;;;;5011605;28;20494;-62
2022/08/18 00:36:35;;;;;;;29.58;18.95;;;;;;;;;;5011236;28;20063;-62
2022/08/18 00:39:02;;;;;;;32.55;19.20;;;;;;;;;;4993112;28;20038;-62
2022/08/18 00:41:28;;;;;;;27.63;17.92;;;;;;;;;;5001256;28;20099;-62
2022/08/18 00:43:57;;;;;;;25.25;17.70;;;;;;;;;;5010782;28;20531;-62
2022/08/18 00:46:33;;;;;;;26.50;16.02;;;;;;;;;;4995191;28;20057;-62
2022/08/18 00:49:00;;;;;;;28.17;16.70;;;;;;;;;;5011124;28;20037;-62
2022/08/18 00:51:42;;;;;;;25.60;16.67;;;;;;;;;;5012720;28;20092;-62
2022/08/18 00:54:13;;;;;;;21.35;16.15;;;;;;;;;;5003905;28;20088;-62
2022/08/18 00:56:44;;;;;;;26.88;15.63;;;;;;;;;;4994464;28;20045;-62
2022/08/18 00:59:29;;;;;;;26.88;15.43;;;;;;;;;;5002803;28;20046;-62
2022/08/18 01:02:01;;;;;;;23.95;15.57;;;;;;;;;;5005506;28;20038;-62
2022/08/18 01:04:34;;;;;;;24.58;15.07;;;;;;;;;;5009569;28;20042;-62
2022/08/18 01:07:04;;;;;;;23.83;15.20;;;;;;;;;;5012361;28;20407;-62
2022/08/18 01:09:30;;;;;;;22.52;14.35;;;;;;;;;;5010139;28;20037;-61
2022/08/18 01:11:56;;;;;;;20.23;13.82;;;;;;;;;;5012227;28;20042;-62
2022/08/18 01:14:22;;;;;;;22.38;15.18;;;;;;;;;;5011816;28;20048;-62
2022/08/18 01:22:22;;;;;;;24.88;13.98;;;;;;;;;;5006036;28;20034;-62
2022/08/18 01:27:34;;;;;;;21.85;14.90;;;;;;;;;;5008959;28;20038;-62
2022/08/18 01:30:03;;;;;;;20.95;14.48;;;;;;;;;;5012503;28;20487;-62
2022/08/18 01:32:29;;;;;;;24.83;15.27;;;;;;;;;;4987135;28;20049;-62
2022/08/18 01:34:55;;;;;;;19.75;13.18;;;;;;;;;;4991290;28;20053;-62
2022/08/18 01:37:23;;;;;;;25.10;13.48;;;;;;;;;;5011535;28;20050;-62
2022/08/18 01:39:49;;;;;;;22.80;12.60;;;;;;;;;;5011181;28;20045;-62
2022/08/18 01:42:16;;;;;;;22.65;13.18;;;;;;;;;;5010926;28;20030;-62
2022/08/18 01:44:42;;;;;;;23.55;14.15;;;;;;;;;;5009959;28;20521;-62
2022/08/18 01:47:09;;;;;;;24.48;13.13;;;;;;;;;;5010371;28;20046;-62
2022/08/18 01:49:36;;;;;;;24.52;12.95;;;;;;;;;;5010284;28;20044;-62
2022/08/18 01:52:03;;;;;;;20.27;13.05;;;;;;;;;;5009645;28;20053;-62
2022/08/18 01:54:30;;;;;;;14.88;10.80;;;;;;;;;;5010009;28;20041;-62
2022/08/18 01:56:56;;;;;;;15.60;11.93;;;;;;;;;;5009972;28;20103;-62
2022/08/18 01:59:22;;;;;;;21.00;11.40;;;;;;;;;;5011505;28;20041;-62
2022/08/18 02:01:48;;;;;;;22.67;10.98;;;;;;;;;;5009973;28;20458;-62
2022/08/18 02:04:15;;;;;;;20.80;11.45;;;;;;;;;;5008550;28;20033;-62
2022/08/18 02:06:41;;;;;;;20.17;10.55;;;;;;;;;;5006167;28;20049;-62
2022/08/18 02:09:07;;;;;;;15.75;9.80;;;;;;;;;;5011425;28;20041;-62
2022/08/18 02:11:34;;;;;;;17.58;9.90;;;;;;;;;;5011936;28;20400;-62
2022/08/18 02:14:00;;;;;;;17.23;10.23;;;;;;;;;;5009808;28;20165;-62
2022/08/18 02:16:26;;;;;;;19.92;10.63;;;;;;;;;;5007207;28;20096;-62
2022/08/18 02:18:52;;;;;;;21.77;11.25;;;;;;;;;;5007628;28;20549;-61
2022/08/18 02:21:20;;;;;;;20.25;11.65;;;;;;;;;;5009912;28;20061;-62
2022/08/18 02:23:46;;;;;;;18.00;10.43;;;;;;;;;;5011111;28;20049;-62
2022/08/18 02:26:14;;;;;;;16.08;10.23;;;;;;;;;;5008794;28;20044;-62
2022/08/18 02:28:40;;;;;;;14.10;9.88;;;;;;;;;;5008626;28;20041;-62
2022/08/18 02:31:17;;;;;;;19.33;9.65;;;;;;;;;;5010731;28;20048;-62
2022/08/18 02:33:44;;;;;;;17.38;10.40;;;;;;;;;;5010697;28;20041;-62
2022/08/18 02:36:11;;;;;;;15.93;10.18;;;;;;;;;;5006849;28;20073;-62
2022/08/18 02:38:37;;;;;;;15.45;10.80;;;;;;;;;;5011026;28;20038;-62
2022/08/18 02:41:05;;;;;;;15.10;9.55;;;;;;;;;;5009037;28;20037;-62
2022/08/18 02:43:32;;;;;;;15.20;10.13;;;;;;;;;;5008371;28;20507;-63
2022/08/18 02:45:58;;;;;;;15.82;10.15;;;;;;;;;;5000482;28;20060;-62
2022/08/18 02:48:33;;;;;;;17.77;9.65;;;;;;;;;;5010298;28;20034;-62
2022/08/18 02:51:00;;;;;;;16.17;9.32;;;;;;;;;;5011908;28;20121;-62
2022/08/18 02:53:27;;;;;;;16.52;9.38;;;;;;;;;;5009281;28;20045;-62
2022/08/18 02:55:54;;;;;;;19.67;10.18;;;;;;;;;;5009546;28;20408;-62
2022/08/18 02:58:20;;;;;;;17.73;10.05;;;;;;;;;;5010640;28;20506;-62
2022/08/18 03:00:46;;;;;;;19.48;10.48;;;;;;;;;;5009235;28;20034;-62
2022/08/18 03:03:12;;;;;;;17.70;10.05;;;;;;;;;;4992791;28;20049;-62
2022/08/18 03:05:39;;;;;;;14.43;9.95;;;;;;;;;;4990811;28;20069;-62
2022/08/18 03:08:05;;;;;;;16.80;10.55;;;;;;;;;;5010470;28;20038;-63
2022/08/18 03:10:31;;;;;;;19.55;10.00;;;;;;;;;;5011187;28;20046;-63
2022/08/18 03:12:57;;;;;;;17.75;9.95;;;;;;;;;;5011853;28;20046;-62
2022/08/18 03:15:23;;;;;;;18.25;10.40;;;;;;;;;;5007448;28;20045;-62
2022/08/18 03:17:50;;;;;;;14.98;9.68;;;;;;;;;;4991452;28;20041;-62
2022/08/18 03:20:16;;;;;;;18.48;10.30;;;;;;;;;;5000892;28;20042;-62
2022/08/18 03:22:42;;;;;;;17.05;9.80;;;;;;;;;;5011132;28;20160;-62
2022/08/18 03:25:08;;;;;;;15.55;9.95;;;;;;;;;;5009849;28;20582;-62
2022/08/18 03:27:35;;;;;;;18.67;9.85;;;;;;;;;;5012634;28;20060;-62
2022/08/18 03:30:03;;;;;;;17.33;10.15;;;;;;;;;;5011449;28;20041;-62
2022/08/18 03:32:29;;;;;;;16.77;10.30;;;;;;;;;;5015032;28;20045;-62
2022/08/18 03:34:55;;;;;;;15.13;9.98;;;;;;;;;;5012470;28;20038;-62
2022/08/18 03:37:21;;;;;;;21.45;10.65;;;;;;;;;;5012671;28;20042;-62
2022/08/18 03:39:50;;;;;;;17.30;10.48;;;;;;;;;;5014501;28;20042;-62
2022/08/18 03:42:16;;;;;;;17.40;10.57;;;;;;;;;;4994383;28;20495;-62
2022/08/18 03:44:42;;;;;;;17.80;10.43;;;;;;;;;;5009834;28;20136;-62
2022/08/18 03:47:10;;;;;;;19.67;11.60;;;;;;;;;;5010320;28;20042;-63
2022/08/18 03:49:37;;;;;;;22.60;11.90;;;;;;;;;;5012872;28;20065;-62
2022/08/18 03:52:04;;;;;;;21.95;11.63;;;;;;;;;;5014571;28;20042;-62
2022/08/18 03:54:30;;;;;;;17.92;11.88;;;;;;;;;;5019114;23;20046;-63
2022/08/18 03:56:57;;;;;;;23.13;12.27;;;;;;;;;;4993978;28;20069;-63
2022/08/18 03:59:24;;;;;;;19.13;12.57;;;;;;;;;;5014083;28;20048;-63
2022/08/18 04:01:51;;;;;;;22.20;12.45;;;;;;;;;;5009487;28;20042;-63
2022/08/18 04:04:19;;;;;;;18.90;12.85;;;;;;;;;;5003782;28;20041;-63
2022/08/18 04:06:49;;;;;;;19.83;12.48;;;;;;;;;;5004719;28;20061;-63
2022/08/18 04:09:16;;;;;;;19.27;13.55;;;;;;;;;;5005061;28;20033;-63
2022/08/18 04:11:43;;;;;;;22.38;13.38;;;;;;;;;;4994812;28;20046;-63
2022/08/18 04:14:10;;;;;;;28.48;14.10;;;;;;;;;;5003506;28;20096;-63
2022/08/18 04:16:37;;;;;;;24.70;14.45;;;;;;;;;;5010479;28;20041;-63
2022/08/18 04:19:03;;;;;;;22.27;14.10;;;;;;;;;;5012178;28;20049;-63
2022/08/18 04:21:33;;;;;;;24.75;14.52;;;;;;;;;;5004893;28;20041;-63
2022/08/18 04:24:06;;;;;;;29.27;15.87;;;;;;;;;;5013228;28;20037;-63
2022/08/18 04:26:33;;;;;;;25.92;15.23;;;;;;;;;;5007190;28;20301;-63
2022/08/18 04:29:00;;;;;;;25.73;14.95;;;;;;;;;;4996153;28;20435;-63
2022/08/18 04:31:28;;;;;;;30.98;16.90;;;;;;;;;;5010953;28;20041;-63
2022/08/18 04:33:55;;;;;;;26.85;16.23;;;;;;;;;;5007642;28;20061;-63
2022/08/18 04:36:21;;;;;;;28.05;16.38;;;;;;;;;;5003243;28;20041;-63
2022/08/18 04:38:47;;;;;;;28.25;15.57;;;;;;;;;;5000348;28;20373;-63
2022/08/18 04:41:13;;;;;;;28.65;16.05;;;;;;;;;;5004032;28;20384;-63
2022/08/18 04:43:39;;;;;;;30.70;17.70;;;;;;;;;;5004102;28;20037;-63
2022/08/18 04:46:06;;;;;;;31.38;18.33;;;;;;;;;;5010399;28;20400;-63
2022/08/18 04:48:37;;;;;;;28.67;18.42;;;;;;;;;;5012589;28;20530;-63
2022/08/18 04:51:07;;;;;;;32.55;18.55;;;;;;;;;;5011708;28;20053;-63
2022/08/18 04:53:46;;;;;;;35.90;19.73;;;;;;;;;;5002785;28;20077;-63
2022/08/18 04:56:26;;;;;;;31.27;18.95;;;;;;;;;;5009303;28;20491;-63
2022/08/18 04:58:52;;;;;;;34.63;17.88;;;;;;;;;;5008405;28;20085;-63
2022/08/18 05:01:20;;;;;;;35.58;17.42;;;;;;;;;;5011380;28;20050;-63
2022/08/18 05:03:47;;;;;;;30.27;17.63;;;;;;;;;;5003685;28;20088;-63
2022/08/18 05:06:13;;;;;;;34.25;18.00;;;;;;;;;;5010591;28;20037;-63
2022/08/18 05:08:39;;;;;;;30.10;16.65;;;;;;;;;;5012314;28;20065;-63
2022/08/18 05:11:05;;;;;;;29.42;16.98;;;;;;;;;;5003961;28;20495;-63
2022/08/18 05:13:31;;;;;;;29.35;16.00;;;;;;;;;;5004048;28;20080;-63
2022/08/18 05:16:02;;;;;;;32.60;16.67;;;;;;;;;;5007434;28;20096;-63
2022/08/18 05:18:31;;;;;;;26.98;16.05;;;;;;;;;;5005653;28;20117;-63
2022/08/18 05:20:58;;;;;;;31.25;15.75;;;;;;;;;;5000830;28;20074;-63
2022/08/18 05:23:24;;;;;;;28.45;15.02;;;;;;;;;;5003540;28;20742;-63
2022/08/18 05:25:56;;;;;;;30.17;15.82;;;;;;;;;;5005808;28;20492;-63
2022/08/18 05:28:21;;;;;;;36.22;15.05;;;;;;;;;;5003514;28;20446;-63
2022/08/18 05:30:47;;;;;;;30.80;16.00;;;;;;;;;;5008730;28;20136;-63
2022/08/18 05:33:13;;;;;;;24.70;13.52;;;;;;;;;;5010872;28;20042;-63
2022/08/18 05:35:45;;;;;;;28.02;14.52;;;;;;;;;;5008932;28;20070;-63
2022/08/18 05:38:22;;;;;;;26.90;14.00;;;;;;;;;;5009479;28;20052;-63
2022/08/18 05:41:09;;;;;;;26.27;13.55;;;;;;;;;;5002767;28;20100;-63
2022/08/18 05:43:37;;;;;;;22.92;13.60;;;;;;;;;;5004774;28;20034;-64
2022/08/18 05:46:04;;;;;;;29.80;12.90;;;;;;;;;;5010388;28;20037;-63
2022/08/18 05:48:31;;;;;;;27.55;12.73;;;;;;;;;;5003472;28;20052;-63
2022/08/18 05:50:59;;;;;;;25.88;12.82;;;;;;;;;;5005648;28;20070;-63
2022/08/18 05:56:45;;;;;;;24.92;12.95;;;;;;;;;;5004504;28;20037;-63
2022/08/18 05:58:58;;;;;;;27.23;12.93;;;;;;;;;;5009128;28;20050;-63
2022/08/18 06:01:40;;;;;;;21.13;13.13;;;;;;;;;;5004955;28;20335;-63
2022/08/18 06:04:08;;;;;;;23.50;12.18;;;;;;;;;;5002168;28;20052;-63
2022/08/18 06:06:35;;;;;;;22.15;11.63;;;;;;;;;;5010083;28;20034;-63
2022/08/18 06:09:12;;;;;;;27.15;12.40;;;;;;;;;;5004528;28;20184;-63
2022/08/18 06:11:38;;;;;;;19.33;12.43;;;;;;;;;;5006806;28;20042;-63
2022/08/18 06:14:04;;;;;;;23.10;12.27;;;;;;;;;;5000366;28;20038;-63
2022/08/18 06:16:33;;;;;;;18.80;11.05;;;;;;;;;;5001167;28;20033;-63
2022/08/18 06:19:05;;;;;;;18.23;11.30;;;;;;;;;;5007150;28;20042;-63
2022/08/18 06:21:31;;;;;;;23.10;11.27;;;;;;;;;;5006276;28;20031;-63
2022/08/18 06:23:59;;;;;;;19.85;11.45;;;;;;;;;;5004538;28;20077;-63
2022/08/18 06:26:36;;;;;;;16.88;11.25;;;;;;;;;;5005595;28;20667;-63
2022/08/18 06:29:05;;;;;;;16.77;11.00;;;;;;;;;;5008114;28;20049;-63
2022/08/18 06:31:54;;;;;;;18.15;11.35;;;;;;;;;;5006949;28;20041;-63
2022/08/18 06:34:25;;;;;;;20.45;12.55;;;;;;;;;;5001620;28;20045;-63
2022/08/18 06:36:51;;;;;;;20.25;10.90;;;;;;;;;;5007807;28;20558;-63
2022/08/18 06:39:20;;;;;;;17.35;11.13;;;;;;;;;;5002123;28;20073;-63
2022/08/18 06:41:48;;;;;;;20.35;11.50;;;;;;;;;;5006160;28;20062;-63
2022/08/18 06:44:37;;;;;;;17.67;12.00;;;;;;;;;;4997181;28;20037;-63
2022/08/18 06:47:06;;;;;;;17.90;10.93;;;;;;;;;;4976484;28;20077;-63
2022/08/18 06:49:47;;;;;;;19.70;10.82;;;;;;;;;;5006560;28;20582;-63
2022/08/18 06:52:33;;;;;;;13.00;10.43;;;;;;;;;;4999011;28;20046;-63
2022/08/18 06:55:05;;;;;;;19.48;10.75;;;;;;;;;;5002314;28;20057;-63
2022/08/18 06:57:33;;;;;;;14.65;9.82;;;;;;;;;;5010818;28;20096;-63
2022/08/18 07:00:22;;;;;;;12.30;8.55;;;;;;;;;;5009438;28;20129;-63
2022/08/18 07:02:57;;;;;;;12.18;8.27;;;;;;;;;;4997827;28;20575;-63
2022/08/18 07:05:24;;;;;;;14.52;9.45;;;;;;;;;;5008555;28;20077;-63
2022/08/18 07:08:05;;;;;;;13.35;9.25;;;;;;;;;;5006085;28;20117;-63
2022/08/18 07:10:31;;;;;;;;;;;;;;;;;;5005200;28;20125;-63
2022/08/18 07:13:05;;;;;;;14.63;8.98;;;;;;;;;;5010837;28;19917;-63
2022/08/18 07:15:31;;;;;;;14.43;9.30;;;;;;;;;;5006414;28;20159;-63
2022/08/18 07:18:06;;;;;;;17.83;9.95;;;;;;;;;;5010354;28;20040;-64
2022/08/18 07:20:40;;;;;;;17.00;9.95;;;;;;;;;;5010898;28;20056;-63
2022/08/18 07:23:07;;;;;;;15.55;9.52;;;;;;;;;;5006539;28;20109;-63
2022/08/18 07:25:38;;;;;;;13.13;9.20;;;;;;;;;;5003296;28;20042;-63
2022/08/18 07:28:04;;;;;;;15.68;8.82;;;;;;;;;;5009263;28;20550;-63
2022/08/18 07:30:35;;;;;;;16.52;9.75;;;;;;;;;;5008408;28;20391;-63
2022/08/18 07:33:01;;;;;;;16.38;9.73;;;;;;;;;;5012263;28;20042;-63
2022/08/18 07:35:48;;;;;;;15.10;8.70;;;;;;;;;;5011821;28;20038;-63
2022/08/18 07:38:31;;;;;;;13.10;9.43;;;;;;;;;;5005090;28;20044;-63
2022/08/18 07:41:00;;;;;;;13.10;9.25;;;;;;;;;;4997317;28;20496;-63
2022/08/18 07:43:38;;;;;;;13.93;8.70;;;;;;;;;;5009169;28;20041;-63
2022/08/18 07:46:17;;;;;;;14.32;8.43;;;;;;;;;;5004605;28;20042;-63
2022/08/18 07:48:43;;;;;;;14.35;9.23;;;;;;;;;;5011546;28;20030;-63
2022/08/18 07:51:19;;;;;;;11.88;8.02;;;;;;;;;;5011673;28;20042;-63
2022/08/18 07:53:52;;;;;;;17.65;9.00;;;;;;;;;;5013672;28;20038;-63
2022/08/18 07:56:27;;;;;;;13.30;8.25;;;;;;;;;;5001190;28;20093;-63
2022/08/18 07:59:01;;;;;;;14.90;8.65;;;;;;;;;;5000013;28;20515;-63
2022/08/18 08:01:35;;;;;;;11.75;7.65;;;;;;;;;;5010466;28;20056;-63
2022/08/18 08:04:19;;;;;;;9.82;7.15;;;;;;;;;;5005439;28;20038;-63
2022/08/18 08:06:49;;;;;;;8.40;6.68;;;;;;;;;;4990081;28;20131;-63
2022/08/18 08:09:33;;;;;;;9.83;6.43;;;;;;;;;;4992913;28;20053;-63
2022/08/18 08:12:04;;;;;;;12.30;7.15;;;;;;;;;;5010872;28;20630;-63
2022/08/18 08:14:40;;;;;;;9.68;6.95;;;;;;;;;;4997968;28;20550;-63
2022/08/18 08:17:11;;;;;;;11.68;7.10;;;;;;;;;;5010826;28;20499;-63
2022/08/18 08:19:47;;;;;;;9.05;6.03;;;;;;;;;;5007495;28;20050;-63
2022/08/18 08:22:17;;;;;;;8.55;6.13;;;;;;;;;;5002809;28;20065;-63
2022/08/18 08:24:55;;;;;;;11.13;6.60;;;;;;;;;;5002017;28;20041;-63
2022/08/18 08:27:34;;;;;;;10.95;6.13;;;;;;;;;;4996326;28;20488;-63
2022/08/18 08:30:13;;;;;;;9.07;6.05;;;;;;;;;;5008706;28;20041;-63
2022/08/18 08:32:42;;;;;;;8.20;6.03;;;;;;;;;;5005740;28;20052;-63
2022/08/18 08:35:08;;;;;;;8.27;6.00;;;;;;;;;;5012526;28;20049;-63
2022/08/18 08:37:37;;;;;;;8.35;5.70;;;;;;;;;;5006423;28;20109;-63
2022/08/18 08:40:07;;;;;;;7.32;5.40;;;;;;;;;;5012576;28;20038;-62
2022/08/18 08:42:33;;;;;;;10.60;5.20;;;;;;;;;;5003640;28;20034;-64
2022/08/18 08:45:03;;;;;;;8.77;5.10;;;;;;;;;;4988571;28;20057;-64
2022/08/18 08:47:36;;;;;;;9.45;4.57;;;;;;;;;;5008470;28;20043;-63
2022/08/18 08:50:02;;;;;;;8.88;4.63;;;;;;;;;;5007323;28;20044;-63
2022/08/18 08:52:31;;;;;;;6.18;4.57;;;;;;;;;;5010994;28;20030;-63
2022/08/18 08:55:03;;;;;;;7.28;5.32;;;;;;;;;;5007593;28;20042;-63
2022/08/18 08:57:32;;;;;;;8.35;4.80;;;;;;;;;;5010607;28;20046;-63
2022/08/18 09:00:01;;;;;;;6.35;4.63;;;;;;;;;;5003334;28;20121;-63
2022/08/18 09:02:43;;;;;;;6.53;4.75;;;;;;;;;;5007399;28;20133;-63
2022/08/18 09:05:29;;;;;;;8.15;4.88;;;;;;;;;;5008321;28;20124;-64
2022/08/18 09:08:22;;;;;;;5.97;4.72;;;;;;;;;;5001700;28;20054;-62
2022/08/18 09:11:06;;;;;;;7.95;4.97;;;;;;;;;;5000224;28;20049;-63
2022/08/18 09:13:51;;;;;;;7.38;5.53;;;;;;;;;;5002104;28;20089;-63
2022/08/18 09:16:23;;;;;;;8.40;5.40;;;;;;;;;;5003009;28;20046;-63
2022/08/18 09:19:09;;;;;;;8.57;4.95;;;;;;;;;;5002874;28;20048;-63
2022/08/18 09:21:58;;;;;;;6.97;5.28;;;;;;;;;;5001564;28;20053;-62
2022/08/18 09:24:30;;;;;;;8.77;5.07;;;;;;;;;;4994647;28;20050;-62
2022/08/18 09:27:02;;;;;;;8.93;5.38;;;;;;;;;;5006138;28;20570;-62
2022/08/18 09:29:37;;;;;;;8.80;5.28;;;;;;;;;;5001942;28;20042;-62
2022/08/18 09:32:19;;;;;;;7.78;5.35;;;;;;;;;;5003199;28;20037;-62
2022/08/18 09:34:51;;;;;;;11.20;5.00;;;;;;;;;;5011567;28;20042;-63
2022/08/18 09:37:20;;;;;;;6.07;4.07;;;;;;;;;;5006803;28;20042;-62
2022/08/18 09:42:50;;;;;;;6.97;4.60;;;;;;;;;;5009968;28;20443;-62
2022/08/18 09:45:31;;;;;;;9.40;4.38;;;;;;;;;;5005346;28;20052;-63
2022/08/18 09:48:04;;;;;;;8.88;4.40;;;;;;;;;;5011522;28;20038;-63
2022/08/18 09:50:38;;;;;;;9.10;4.35;;;;;;;;;;4981959;28;20042;-63
2022/08/18 09:53:23;;;;;;;8.98;4.30;;;;;;;;;;5009619;28;20412;-63
2022/08/18 09:55:54;;;;;;;10.95;4.30;;;;;;;;;;5018680;22;20042;-63
2022/08/18 09:58:27;;;;;;;11.65;4.72;;;;;;;;;;4988198;28;20403;-63
2022/08/18 10:01:23;;;;;;;9.55;4.20;;;;;;;;;;5001542;28;20508;-63
2022/08/18 10:04:08;;;;;;;8.52;4.20;;;;;;;;;;4966158;28;20050;-63
2022/08/18 10:06:37;;;;;;;10.98;4.43;;;;;;;;;;5007180;28;20041;-63
2022/08/18 10:09:23;;;;;;;7.70;4.25;;;;;;;;;;4990937;28;20041;-63
2022/08/18 10:12:07;;;;;;;10.43;4.53;;;;;;;;;;5006801;28;20446;-63
2022/08/18 10:14:34;;;;;;;11.57;4.13;;;;;;;;;;4993725;28;20038;-63
2022/08/18 10:17:17;;;;;;;10.18;3.92;;;;;;;;;;4998135;28;20050;-62
2022/08/18 10:19:43;;;;;;;5.50;3.28;;;;;;;;;;5003799;28;20042;-63
2022/08/18 10:22:10;;;;;;;5.18;3.10;;;;;;;;;;5005203;28;20133;-62
2022/08/18 10:24:39;;;;;;;4.07;2.83;;;;;;;;;;5008501;28;20042;-63
2022/08/18 10:27:11;;;;;;;8.32;2.95;;;;;;;;;;5006765;28;20120;-63
2022/08/18 10:29:40;;;;;;;6.13;3.78;;;;;;;;;;5001433;28;20397;-62
2022/08/18 10:32:09;;;;;;;8.18;3.45;;;;;;;;;;5007808;28;20038;-62
2022/08/18 10:34:42;;;;;;;6.20;3.25;;;;;;;;;;4995125;28;20038;-62
2022/08/18 10:37:09;;;;;;;6.47;3.38;;;;;;;;;;5004420;28;20041;-63
2022/08/18 10:39:37;;;;;;;6.10;3.28;;;;;;;;;;5007197;28;20048;-63
2022/08/18 10:42:09;;;;;;;7.25;3.05;;;;;;;;;;5007746;28;20038;-63
2022/08/18 10:44:44;;;;;;;4.60;2.90;;;;;;;;;;4999088;28;20037;-63
2022/08/18 10:47:19;;;;;;;5.40;3.00;;;;;;;;;;5003229;28;20040;-63
2022/08/18 10:49:48;;;;;;;5.93;3.20;;;;;;;;;;5010159;28;20030;-63
2022/08/18 10:52:20;;;;;;;5.43;2.65;;;;;;;;;;5009639;28;20046;-63
2022/08/18 10:55:09;;;;;;;7.90;3.10;;;;;;;;;;5004547;28;20045;-63
2022/08/18 10:57:57;;;;;;;5.47;2.70;;;;;;;;;;5010992;28;20029;-63
2022/08/18 11:00:27;;;;;;;5.40;2.70;;;;;;;;;;5010783;28;20600;-63
2022/08/18 11:03:22;;;;;;;4.53;2.10;;;;;;;;;;5007063;28;20048;-63
2022/08/18 11:05:48;;;;;;;5.00;2.70;;;;;;;;;;4921331;28;20059;-63
2022/08/18 11:08:17;;;;;;;3.38;2.58;;;;;;;;;;5006684;28;20034;-63
2022/08/18 11:10:49;;;;;;;4.68;2.28;;;;;;;;;;5004043;28;20527;-63
2022/08/18 11:13:28;;;;;;;4.95;2.20;;;;;;;;;;4986439;28;20125;-63
2022/08/18 11:16:03;;;;;;;2.85;1.88;;;;;;;;;;5004754;28;20501;-63
2022/08/18 11:18:35;;;;;;;2.30;2.08;;;;;;;;;;4994525;28;20507;-63
2022/08/18 11:21:20;;;;;;;3.53;1.92;;;;;;;;;;5009025;28;20049;-63
2022/08/18 11:24:01;;;;;;;3.70;1.70;;;;;;;;;;5007501;28;20091;-63
2022/08/18 11:26:27;;;;;;;;;;;;;;;;;;5003785;28;20034;-63
2022/08/18 11:28:53;;;;;;;3.35;1.60;;;;;;;;;;5010528;28;19924;-63
2022/08/18 11:31:19;;;;;;;2.72;1.52;;;;;;;;;;5006701;28;20049;-63
2022/08/18 11:33:45;;;;;;;3.22;1.75;;;;;;;;;;5011130;28;20034;-63
2022/08/18 11:36:11;;;;;;;3.85;2.10;;;;;;;;;;4986980;28;20042;-62
2022/08/18 11:38:37;;;;;;;3.75;1.73;;;;;;;;;;4994125;28;20084;-63
2022/08/18 11:41:17;;;;;;;3.90;1.80;;;;;;;;;;5007651;28;20049;-62
2022/08/18 11:43:43;;;;;;;3.93;1.90;;;;;;;;;;4989840;28;20033;-62
2022/08/18 11:46:29;;;;;;;4.38;2.25;;;;;;;;;;4972854;28;20296;-63
2022/08/18 11:48:55;;;;;;;4.07;2.30;;;;;;;;;;5013138;28;20399;-63
2022/08/18 11:51:26;;;;;;;4.13;2.00;;;;;;;;;;5010727;28;20046;-63
2022/08/18 11:53:52;;;;;;;3.58;1.92;;;;;;;;;;5014813;28;20045;-63
2022/08/18 11:56:23;;;;;;;3.35;2.10;;;;;;;;;;5011574;28;20091;-63
2022/08/18 11:58:52;;;;;;;3.22;2.05;;;;;;;;;;5014067;28;20526;-63
2022/08/18 12:01:34;;;;;;;2.28;1.83;;;;;;;;;;5008691;28;20074;-63
2022/08/18 12:04:13;;;;;;;5.03;2.00;;;;;;;;;;5011712;28;20044;-62
2022/08/18 12:06:58;;;;;;;4.43;2.13;;;;;;;;;;4988410;28;20451;-63
2022/08/18 12:09:24;;;;;;;4.55;2.38;;;;;;;;;;5008759;28;20121;-63
2022/08/18 12:11:50;;;;;;;3.78;2.25;;;;;;;;;;5006888;28;20118;-63
2022/08/18 12:14:20;;;;;;;4.25;1.92;;;;;;;;;;4994587;28;20050;-62
2022/08/18 12:16:46;;;;;;;3.83;1.90;;;;;;;;;;5010385;28;20511;-63
2022/08/18 12:19:13;;;;;;;6.15;2.25;;;;;;;;;;4994145;28;20038;-62
2022/08/18 12:21:46;;;;;;;5.13;2.53;;;;;;;;;;5010044;28;20566;-62
2022/08/18 12:24:20;;;;;;;5.03;2.35;;;;;;;;;;5011040;28;20038;-62
2022/08/18 12:26:46;;;;;;;4.22;2.35;;;;;;;;;;5007141;28;20042;-63
2022/08/18 12:29:12;;;;;;;5.55;2.25;;;;;;;;;;5006424;28;20087;-62
2022/08/18 12:31:39;;;;;;;3.83;2.20;;;;;;;;;;5008112;28;20503;-62
2022/08/18 12:34:05;;;;;;;8.75;2.70;;;;;;;;;;5011327;28;20030;-63
2022/08/18 12:36:31;;;;;;;4.43;2.00;;;;;;;;;;5000041;28;20048;-63
2022/08/18 12:38:57;;;;;;;3.45;1.80;;;;;;;;;;4995879;28;20042;-62
2022/08/18 12:41:23;;;;;;;6.18;1.80;;;;;;;;;;5010278;28;20403;-63
2022/08/18 12:43:49;;;;;;;5.32;2.20;;;;;;;;;;5013833;28;20038;-63
2022/08/18 12:46:15;;;;;;;4.10;1.98;;;;;;;;;;4997146;28;20091;-63
2022/08/18 12:48:41;;;;;;;4.05;2.03;;;;;;;;;;5010644;28;20038;-63
2022/08/18 12:51:07;;;;;;;4.50;1.92;;;;;;;;;;5012002;28;20049;-63
2022/08/18 12:53:33;;;;;;;2.30;1.90;;;;;;;;;;5010342;28;20403;-63
2022/08/18 12:56:00;;;;;;;3.35;2.17;;;;;;;;;;5010907;28;20132;-63
2022/08/18 12:58:26;;;;;;;2.92;2.08;;;;;;;;;;5010809;28;20038;-63
2022/08/18 13:00:54;;;;;;;4.57;2.33;;;;;;;;;;4985525;28;20248;-63
2022/08/18 13:03:20;;;;;;;5.78;2.30;;;;;;;;;;5007439;28;20044;-63
2022/08/18 13:05:47;;;;;;;6.90;2.55;;;;;;;;;;5009996;28;20518;-63
2022/08/18 13:08:22;;;;;;;3.53;2.08;;;;;;;;;;5011353;28;20447;-63
2022/08/18 13:10:48;;;;;;;5.25;3.10;;;;;;;;;;5003016;28;20050;-63
2022/08/18 13:13:16;;;;;;;4.80;2.33;;;;;;;;;;5011662;28;20529;-62
2022/08/18 13:15:42;;;;;;;3.20;2.22;;;;;;;;;;5011434;28;20084;-63
2022/08/18 13:18:10;;;;;;;4.13;1.63;;;;;;;;;;5020654;28;20412;-63
2022/08/18 13:20:36;;;;;;;3.28;1.92;;;;;;;;;;5009703;28;20038;-63
2022/08/18 13:23:02;;;;;;;5.00;1.80;;;;;;;;;;5007403;28;20042;-63
2022/08/18 13:25:28;;;;;;;4.72;1.85;;;;;;;;;;5005161;28;20037;-63
2022/08/18 13:27:55;;;;;;;3.83;2.10;;;;;;;;;;5003074;28;20121;-63
2022/08/18 13:30:21;;;;;;;3.17;1.58;;;;;;;;;;5003099;28;20065;-63
2022/08/18 13:32:47;;;;;;;2.90;1.80;;;;;;;;;;5007912;28;20072;-62
2022/08/18 13:35:14;;;;;;;3.42;2.40;;;;;;;;;;5011623;28;20511;-62
2022/08/18 13:37:40;;;;;;;2.47;1.90;;;;;;;;;;5009792;28;20045;-63
2022/08/18 13:40:07;;;;;;;2.65;1.80;;;;;;;;;;4989729;28;20515;-63
2022/08/18 13:42:41;;;;;;;2.67;1.98;;;;;;;;;;5008955;28;20429;-63
2022/08/18 13:45:07;;;;;;;3.15;2.08;;;;;;;;;;5008995;28;20045;-63
2022/08/18 13:47:33;;;;;;;5.13;2.05;;;;;;;;;;5011631;28;20085;-63
2022/08/18 13:49:59;;;;;;;3.03;2.20;;;;;;;;;;5008934;28;20415;-63
2022/08/18 13:52:28;;;;;;;4.15;2.28;;;;;;;;;;5012220;28;20049;-63
2022/08/18 13:54:54;;;;;;;5.13;2.10;;;;;;;;;;5010270;28;20084;-63
2022/08/18 13:57:20;;;;;;;2.95;2.10;;;;;;;;;;4995400;28;20065;-63
2022/08/18 13:59:46;;;;;;;6.32;2.28;;;;;;;;;;5003451;28;20040;-63
2022/08/18 14:02:12;;;;;;;3.15;1.88;;;;;;;;;;5009310;28;20038;-63
2022/08/18 14:04:39;;;;;;;5.75;2.60;;;;;;;;;;5008688;28;20152;-63
2022/08/18 14:07:06;;;;;;;4.68;2.35;;;;;;;;;;5010050;28;20551;-63
2022/08/18 14:09:32;;;;;;;5.45;2.30;;;;;;;;;;5005651;28;20120;-63
2022/08/18 14:11:58;;;;;;;4.10;2.60;;;;;;;;;;5008916;28;20128;-63
2022/08/18 14:14:24;;;;;;;5.88;2.28;;;;;;;;;;4993386;28;20088;-63
2022/08/18 14:16:50;;;;;;;5.10;2.55;;;;;;;;;;5003606;28;20467;-64
2022/08/18 14:27:33;;;;;;;3.60;2.30;;;;;;;;;;5011258;28;20134;-64
2022/08/18 14:30:00;;;;;;;4.30;2.40;;;;;;;;;;5009050;28;20049;-64
2022/08/18 14:32:28;;;;;;;3.83;2.20;;;;;;;;;;5003862;28;20104;-63
2022/08/18 14:34:55;;;;;;;4.75;2.00;;;;;;;;;;5009120;28;20087;-63
2022/08/18 14:37:21;;;;;;;3.90;2.20;;;;;;;;;;4992481;28;20092;-63
2022/08/18 14:39:47;;;;;;;5.88;2.67;;;;;;;;;;5006966;28;20038;-63
2022/08/18 14:42:14;;;;;;;4.13;2.58;;;;;;;;;;5008207;28;20048;-64
2022/08/18 14:44:40;;;;;;;4.72;2.30;;;;;;;;;;4995258;28;20041;-64
2022/08/18 14:47:06;;;;;;;7.53;2.40;;;;;;;;;;4999855;28;20038;-63
2022/08/18 14:49:33;;;;;;;3.10;2.25;;;;;;;;;;5008046;28;20546;-63
2022/08/18 14:52:00;;;;;;;6.43;2.50;;;;;;;;;;5002477;28;20050;-63
2022/08/18 14:54:26;;;;;;;3.78;2.35;;;;;;;;;;5005991;28;20041;-63
2022/08/18 14:56:52;;;;;;;2.90;2.45;;;;;;;;;;5007217;28;20045;-64
2022/08/18 14:59:18;;;;;;;6.05;2.33;;;;;;;;;;5001882;28;20137;-64
2022/08/18 15:01:44;;;;;;;6.78;2.92;;;;;;;;;;5000449;28;20057;-64
2022/08/18 15:04:13;;;;;;;3.95;2.40;;;;;;;;;;5008205;28;20034;-64
2022/08/18 15:06:39;;;;;;;3.95;2.50;;;;;;;;;;4999419;28;20500;-63
2022/08/18 15:09:06;;;;;;;4.85;2.30;;;;;;;;;;5008744;28;20060;-63
2022/08/18 15:11:32;;;;;;;5.50;2.67;;;;;;;;;;5010319;28;20042;-63